sensor_id;sensor_type;location;lat;lon;timestamp;P1;durP1;ratioP1;P2;durP2;ratioP2
20597;SDS011;10457;48.770;11.446;2023-02-11T00:05:20;90.93;;;43.77;;
20597;SDS011;10457;48.770;11.446;2023-02-11T00:10:42;82.33;;;41.97;;
20597;SDS011;10457;48.770;11.446;2023-02-11T00:16:06;76.60;;;37.93;;
20597;SDS011;10457;48.770;11.446;2023-02-11T00:21:30;78.33;;;37.67;;
20597;SDS011;10457;48.770;11.446;2023-02-11T00:26:52;86.13;;;41.03;;
20597;SDS011;10457;48.770;11.446;2023-02-11T00:32:14;72.10;;;39.63;;
20597;SDS011;10457;48.770;11.446;2023-02-11T00:37:36;78.20;;;39.20;;
20597;SDS011;10457;48.770;11.446;2023-02-11T00:42:58;83.67;;;40.17;;
20597;SDS011;10457;48.770;11.446;2023-02-11T00:48:21;81.30;;;38.80;;
20597;SDS011;10457;48.770;11.446;2023-02-11T00:53:42;81.93;;;38.67;;
20597;SDS011;10457;48.770;11.446;2023-02-11T00:59:04;76.97;;;39.90;;
20597;SDS011;10457;48.770;11.446;2023-02-11T01:04:27;74.20;;;40.13;;
20597;SDS011;10457;48.770;11.446;2023-02-11T01:09:48;71.43;;;36.53;;
20597;SDS011;10457;48.770;11.446;2023-02-11T01:15:11;71.13;;;36.73;;
20597;SDS011;10457;48.770;11.446;2023-02-11T01:20:41;80.73;;;39.57;;
20597;SDS011;10457;48.770;11.446;2023-02-11T01:26:03;80.03;;;39.83;;
20597;SDS011;10457;48.770;11.446;2023-02-11T01:31:28;87.00;;;40.23;;
20597;SDS011;10457;48.770;11.446;2023-02-11T01:36:56;76.63;;;38.83;;
20597;SDS011;10457;48.770;11.446;2023-02-11T01:42:19;93.80;;;43.67;;
20597;SDS011;10457;48.770;11.446;2023-02-11T01:47:43;79.30;;;42.10;;
20597;SDS011;10457;48.770;11.446;2023-02-11T01:53:13;83.63;;;41.70;;
20597;SDS011;10457;48.770;11.446;2023-02-11T01:58:52;74.70;;;40.03;;
20597;SDS011;10457;48.770;11.446;2023-02-11T02:04:24;83.87;;;40.90;;
20597;SDS011;10457;48.770;11.446;2023-02-11T02:09:54;77.30;;;40.37;;
20597;SDS011;10457;48.770;11.446;2023-02-11T02:15:21;85.53;;;42.10;;
20597;SDS011;10457;48.770;11.446;2023-02-11T02:20:52;83.73;;;41.43;;
20597;SDS011;10457;48.770;11.446;2023-02-11T02:32:48;77.27;;;40.77;;
20597;SDS011;10457;48.770;11.446;2023-02-11T02:38:26;78.10;;;40.50;;
20597;SDS011;10457;48.770;11.446;2023-02-11T02:43:51;76.80;;;40.20;;
20597;SDS011;10457;48.770;11.446;2023-02-11T02:49:15;72.50;;;37.97;;
20597;SDS011;10457;48.770;11.446;2023-02-11T03:00:33;75.10;;;38.90;;
20597;SDS011;10457;48.770;11.446;2023-02-11T03:06:04;77.60;;;37.57;;
20597;SDS011;10457;48.770;11.446;2023-02-11T03:11:33;73.93;;;37.57;;
20597;SDS011;10457;48.770;11.446;2023-02-11T03:16:57;74.43;;;38.50;;
20597;SDS011;10457;48.770;11.446;2023-02-11T03:22:24;74.57;;;37.90;;
20597;SDS011;10457;48.770;11.446;2023-02-11T03:27:50;73.80;;;39.60;;
20597;SDS011;10457;48.770;11.446;2023-02-11T03:33:17;74.10;;;37.27;;
20597;SDS011;10457;48.770;11.446;2023-02-11T03:38:47;85.33;;;47.33;;
20597;SDS011;10457;48.770;11.446;2023-02-11T03:44:12;80.17;;;44.00;;
20597;SDS011;10457;48.770;11.446;2023-02-11T03:49:35;78.40;;;38.40;;
20597;SDS011;10457;48.770;11.446;2023-02-11T03:55:02;79.27;;;38.10;;
20597;SDS011;10457;48.770;11.446;2023-02-11T04:00:29;74.07;;;38.33;;
20597;SDS011;10457;48.770;11.446;2023-02-11T04:05:52;72.07;;;36.53;;
20597;SDS011;10457;48.770;11.446;2023-02-11T04:11:15;69.87;;;38.57;;
20597;SDS011;10457;48.770;11.446;2023-02-11T04:16:36;77.17;;;40.63;;
20597;SDS011;10457;48.770;11.446;2023-02-11T04:21:58;75.70;;;37.90;;
20597;SDS011;10457;48.770;11.446;2023-02-11T04:27:22;75.40;;;39.23;;
20597;SDS011;10457;48.770;11.446;2023-02-11T04:32:43;73.27;;;36.13;;
20597;SDS011;10457;48.770;11.446;2023-02-11T04:38:04;75.73;;;39.20;;
20597;SDS011;10457;48.770;11.446;2023-02-11T04:43:27;84.50;;;42.53;;
20597;SDS011;10457;48.770;11.446;2023-02-11T04:48:49;76.73;;;38.40;;
20597;SDS011;10457;48.770;11.446;2023-02-11T04:54:10;28.53;;;13.77;;
20597;SDS011;10457;48.770;11.446;2023-02-11T04:59:33;70.13;;;36.03;;
20597;SDS011;10457;48.770;11.446;2023-02-11T05:04:55;83.10;;;38.63;;
20597;SDS011;10457;48.770;11.446;2023-02-11T05:10:17;78.47;;;38.70;;
20597;SDS011;10457;48.770;11.446;2023-02-11T05:15:39;72.13;;;37.10;;
20597;SDS011;10457;48.770;11.446;2023-02-11T05:21:04;65.80;;;34.97;;
20597;SDS011;10457;48.770;11.446;2023-02-11T05:26:27;65.17;;;34.37;;
20597;SDS011;10457;48.770;11.446;2023-02-11T05:31:50;70.70;;;40.57;;
20597;SDS011;10457;48.770;11.446;2023-02-11T05:37:11;81.00;;;36.80;;
20597;SDS011;10457;48.770;11.446;2023-02-11T05:42:33;68.80;;;35.70;;
20597;SDS011;10457;48.770;11.446;2023-02-11T05:47:56;50.23;;;27.87;;
20597;SDS011;10457;48.770;11.446;2023-02-11T05:53:17;69.77;;;34.33;;
20597;SDS011;10457;48.770;11.446;2023-02-11T05:58:38;82.90;;;42.63;;
20597;SDS011;10457;48.770;11.446;2023-02-11T06:04:01;77.20;;;40.67;;
20597;SDS011;10457;48.770;11.446;2023-02-11T06:09:23;69.50;;;37.80;;
20597;SDS011;10457;48.770;11.446;2023-02-11T06:14:45;73.13;;;41.43;;
20597;SDS011;10457;48.770;11.446;2023-02-11T06:20:08;72.07;;;38.20;;
20597;SDS011;10457;48.770;11.446;2023-02-11T06:25:30;74.90;;;38.33;;
20597;SDS011;10457;48.770;11.446;2023-02-11T06:30:52;74.73;;;39.60;;
20597;SDS011;10457;48.770;11.446;2023-02-11T06:36:15;75.37;;;38.73;;
20597;SDS011;10457;48.770;11.446;2023-02-11T06:41:39;68.00;;;36.67;;
20597;SDS011;10457;48.770;11.446;2023-02-11T06:47:00;72.37;;;38.80;;
20597;SDS011;10457;48.770;11.446;2023-02-11T06:52:24;74.87;;;37.90;;
20597;SDS011;10457;48.770;11.446;2023-02-11T06:57:48;69.17;;;36.53;;
20597;SDS011;10457;48.770;11.446;2023-02-11T07:03:10;60.23;;;34.23;;
20597;SDS011;10457;48.770;11.446;2023-02-11T07:08:33;66.77;;;35.30;;
20597;SDS011;10457;48.770;11.446;2023-02-11T07:13:58;66.30;;;38.47;;
20597;SDS011;10457;48.770;11.446;2023-02-11T07:19:22;68.33;;;36.20;;
20597;SDS011;10457;48.770;11.446;2023-02-11T07:24:45;70.57;;;36.67;;
20597;SDS011;10457;48.770;11.446;2023-02-11T07:30:07;68.77;;;35.13;;
20597;SDS011;10457;48.770;11.446;2023-02-11T07:35:30;66.70;;;34.90;;
20597;SDS011;10457;48.770;11.446;2023-02-11T07:40:53;67.47;;;36.90;;
20597;SDS011;10457;48.770;11.446;2023-02-11T07:46:15;70.30;;;36.10;;
20597;SDS011;10457;48.770;11.446;2023-02-11T07:51:38;63.77;;;37.40;;
20597;SDS011;10457;48.770;11.446;2023-02-11T07:57:02;71.07;;;36.90;;
20597;SDS011;10457;48.770;11.446;2023-02-11T08:02:23;59.97;;;35.90;;
20597;SDS011;10457;48.770;11.446;2023-02-11T08:07:45;66.00;;;35.73;;
20597;SDS011;10457;48.770;11.446;2023-02-11T08:13:09;64.27;;;33.23;;
20597;SDS011;10457;48.770;11.446;2023-02-11T08:18:30;68.50;;;36.73;;
20597;SDS011;10457;48.770;11.446;2023-02-11T08:23:52;65.23;;;35.70;;
20597;SDS011;10457;48.770;11.446;2023-02-11T08:29:16;65.87;;;34.97;;
20597;SDS011;10457;48.770;11.446;2023-02-11T08:34:37;65.20;;;33.77;;
20597;SDS011;10457;48.770;11.446;2023-02-11T08:39:58;68.80;;;37.17;;
20597;SDS011;10457;48.770;11.446;2023-02-11T08:45:21;58.97;;;32.20;;
20597;SDS011;10457;48.770;11.446;2023-02-11T08:50:43;63.23;;;32.03;;
20597;SDS011;10457;48.770;11.446;2023-02-11T08:56:04;50.87;;;29.33;;
20597;SDS011;10457;48.770;11.446;2023-02-11T09:01:28;54.43;;;29.73;;
20597;SDS011;10457;48.770;11.446;2023-02-11T09:06:51;46.30;;;27.33;;
20597;SDS011;10457;48.770;11.446;2023-02-11T09:12:12;53.53;;;30.53;;
20597;SDS011;10457;48.770;11.446;2023-02-11T09:17:35;52.97;;;32.07;;
20597;SDS011;10457;48.770;11.446;2023-02-11T09:22:57;58.17;;;30.97;;
20597;SDS011;10457;48.770;11.446;2023-02-11T09:28:19;58.13;;;32.53;;
20597;SDS011;10457;48.770;11.446;2023-02-11T09:33:43;46.87;;;25.80;;
20597;SDS011;10457;48.770;11.446;2023-02-11T09:39:10;44.50;;;26.63;;
20597;SDS011;10457;48.770;11.446;2023-02-11T09:44:36;44.93;;;26.87;;
20597;SDS011;10457;48.770;11.446;2023-02-11T09:50:01;37.73;;;23.87;;
20597;SDS011;10457;48.770;11.446;2023-02-11T09:55:26;42.17;;;25.70;;
20597;SDS011;10457;48.770;11.446;2023-02-11T10:00:50;44.47;;;25.83;;
20597;SDS011;10457;48.770;11.446;2023-02-11T10:06:27;46.50;;;25.23;;
20597;SDS011;10457;48.770;11.446;2023-02-11T10:12:06;39.13;;;24.60;;
20597;SDS011;10457;48.770;11.446;2023-02-11T10:17:42;42.70;;;24.93;;
20597;SDS011;10457;48.770;11.446;2023-02-11T10:23:18;41.33;;;23.40;;
20597;SDS011;10457;48.770;11.446;2023-02-11T10:28:45;37.63;;;24.17;;
20597;SDS011;10457;48.770;11.446;2023-02-11T10:34:08;39.27;;;24.00;;
20597;SDS011;10457;48.770;11.446;2023-02-11T10:39:33;36.20;;;23.43;;
20597;SDS011;10457;48.770;11.446;2023-02-11T10:44:56;42.83;;;26.13;;
20597;SDS011;10457;48.770;11.446;2023-02-11T10:50:22;42.47;;;24.17;;
20597;SDS011;10457;48.770;11.446;2023-02-11T10:55:51;42.70;;;26.40;;
20597;SDS011;10457;48.770;11.446;2023-02-11T11:01:14;41.77;;;26.50;;
20597;SDS011;10457;48.770;11.446;2023-02-11T11:06:36;42.87;;;24.07;;
20597;SDS011;10457;48.770;11.446;2023-02-11T11:11:59;35.13;;;21.30;;
20597;SDS011;10457;48.770;11.446;2023-02-11T11:17:20;34.60;;;20.30;;
20597;SDS011;10457;48.770;11.446;2023-02-11T11:22:42;33.07;;;19.23;;
20597;SDS011;10457;48.770;11.446;2023-02-11T11:28:05;31.93;;;18.97;;
20597;SDS011;10457;48.770;11.446;2023-02-11T11:33:42;27.97;;;17.67;;
20597;SDS011;10457;48.770;11.446;2023-02-11T11:39:14;27.57;;;17.87;;
20597;SDS011;10457;48.770;11.446;2023-02-11T11:44:41;28.07;;;17.73;;
20597;SDS011;10457;48.770;11.446;2023-02-11T11:50:26;24.10;;;16.60;;
20597;SDS011;10457;48.770;11.446;2023-02-11T11:55:54;29.73;;;17.30;;
20597;SDS011;10457;48.770;11.446;2023-02-11T12:01:27;24.27;;;17.93;;
20597;SDS011;10457;48.770;11.446;2023-02-11T12:07:01;26.50;;;17.10;;
20597;SDS011;10457;48.770;11.446;2023-02-11T12:12:39;23.55;;;16.45;;
20597;SDS011;10457;48.770;11.446;2023-02-11T12:18:16;30.30;;;19.45;;
20597;SDS011;10457;48.770;11.446;2023-02-11T12:24:00;24.48;;;16.10;;
20597;SDS011;10457;48.770;11.446;2023-02-11T12:29:40;21.67;;;15.43;;
20597;SDS011;10457;48.770;11.446;2023-02-11T12:35:18;25.35;;;17.83;;
20597;SDS011;10457;48.770;11.446;2023-02-11T12:40:50;27.98;;;18.58;;
20597;SDS011;10457;48.770;11.446;2023-02-11T12:46:33;30.43;;;18.13;;
20597;SDS011;10457;48.770;11.446;2023-02-11T12:52:07;31.20;;;18.93;;
20597;SDS011;10457;48.770;11.446;2023-02-11T12:57:43;27.30;;;16.67;;
20597;SDS011;10457;48.770;11.446;2023-02-11T13:03:10;27.67;;;16.93;;
20597;SDS011;10457;48.770;11.446;2023-02-11T13:08:38;28.07;;;16.50;;
20597;SDS011;10457;48.770;11.446;2023-02-11T13:14:05;24.80;;;16.43;;
20597;SDS011;10457;48.770;11.446;2023-02-11T13:19:34;30.67;;;18.10;;
20597;SDS011;10457;48.770;11.446;2023-02-11T13:25:06;28.43;;;16.67;;
20597;SDS011;10457;48.770;11.446;2023-02-11T13:30:41;29.23;;;17.03;;
20597;SDS011;10457;48.770;11.446;2023-02-11T13:36:10;24.43;;;15.93;;
20597;SDS011;10457;48.770;11.446;2023-02-11T13:41:39;22.80;;;14.33;;
20597;SDS011;10457;48.770;11.446;2023-02-11T13:47:03;29.13;;;16.67;;
20597;SDS011;10457;48.770;11.446;2023-02-11T13:52:26;30.97;;;17.63;;
20597;SDS011;10457;48.770;11.446;2023-02-11T14:04:05;33.60;;;19.73;;
20597;SDS011;10457;48.770;11.446;2023-02-11T14:09:59;28.90;;;19.03;;
20597;SDS011;10457;48.770;11.446;2023-02-11T14:15:25;37.07;;;19.17;;
20597;SDS011;10457;48.770;11.446;2023-02-11T14:20:48;28.37;;;18.87;;
20597;SDS011;10457;48.770;11.446;2023-02-11T14:26:22;34.30;;;20.30;;
20597;SDS011;10457;48.770;11.446;2023-02-11T14:31:57;34.00;;;23.40;;
20597;SDS011;10457;48.770;11.446;2023-02-11T14:37:26;27.97;;;17.93;;
20597;SDS011;10457;48.770;11.446;2023-02-11T14:43:00;29.07;;;17.07;;
20597;SDS011;10457;48.770;11.446;2023-02-11T14:48:33;25.97;;;15.30;;
20597;SDS011;10457;48.770;11.446;2023-02-11T14:53:57;21.63;;;12.47;;
20597;SDS011;10457;48.770;11.446;2023-02-11T14:59:26;24.30;;;13.03;;
20597;SDS011;10457;48.770;11.446;2023-02-11T15:04:49;22.80;;;12.73;;
20597;SDS011;10457;48.770;11.446;2023-02-11T15:10:14;25.33;;;16.87;;
20597;SDS011;10457;48.770;11.446;2023-02-11T15:15:42;25.70;;;14.70;;
20597;SDS011;10457;48.770;11.446;2023-02-11T15:21:06;24.63;;;15.50;;
20597;SDS011;10457;48.770;11.446;2023-02-11T15:26:28;37.27;;;18.77;;
20597;SDS011;10457;48.770;11.446;2023-02-11T15:32:01;32.07;;;16.60;;
20597;SDS011;10457;48.770;11.446;2023-02-11T15:37:26;30.23;;;17.57;;
20597;SDS011;10457;48.770;11.446;2023-02-11T15:42:53;27.90;;;17.70;;
20597;SDS011;10457;48.770;11.446;2023-02-11T15:48:18;30.97;;;19.97;;
20597;SDS011;10457;48.770;11.446;2023-02-11T15:53:48;32.13;;;18.20;;
20597;SDS011;10457;48.770;11.446;2023-02-11T15:59:16;30.60;;;18.87;;
20597;SDS011;10457;48.770;11.446;2023-02-11T16:04:46;45.37;;;22.97;;
20597;SDS011;10457;48.770;11.446;2023-02-11T16:10:24;28.43;;;16.20;;
20597;SDS011;10457;48.770;11.446;2023-02-11T16:15:48;35.27;;;19.87;;
20597;SDS011;10457;48.770;11.446;2023-02-11T16:21:13;29.10;;;18.27;;
20597;SDS011;10457;48.770;11.446;2023-02-11T16:26:38;28.03;;;16.60;;
20597;SDS011;10457;48.770;11.446;2023-02-11T16:32:06;30.17;;;19.77;;
20597;SDS011;10457;48.770;11.446;2023-02-11T16:37:30;91.83;;;58.80;;
20597;SDS011;10457;48.770;11.446;2023-02-11T16:42:53;50.87;;;31.00;;
20597;SDS011;10457;48.770;11.446;2023-02-11T16:48:16;37.17;;;27.17;;
20597;SDS011;10457;48.770;11.446;2023-02-11T16:53:38;64.47;;;35.10;;
20597;SDS011;10457;48.770;11.446;2023-02-11T16:59:01;81.13;;;36.70;;
20597;SDS011;10457;48.770;11.446;2023-02-11T17:04:23;37.00;;;22.57;;
20597;SDS011;10457;48.770;11.446;2023-02-11T17:09:47;45.00;;;25.33;;
20597;SDS011;10457;48.770;11.446;2023-02-11T17:15:11;37.37;;;22.57;;
20597;SDS011;10457;48.770;11.446;2023-02-11T17:20:33;26.00;;;16.93;;
20597;SDS011;10457;48.770;11.446;2023-02-11T17:25:54;29.13;;;18.17;;
20597;SDS011;10457;48.770;11.446;2023-02-11T17:31:17;24.13;;;14.93;;
20597;SDS011;10457;48.770;11.446;2023-02-11T17:36:39;25.37;;;14.13;;
20597;SDS011;10457;48.770;11.446;2023-02-11T17:42:00;31.27;;;16.63;;
20597;SDS011;10457;48.770;11.446;2023-02-11T17:47:23;32.13;;;17.97;;
20597;SDS011;10457;48.770;11.446;2023-02-11T17:52:45;27.63;;;18.03;;
20597;SDS011;10457;48.770;11.446;2023-02-11T17:58:06;29.23;;;17.67;;
20597;SDS011;10457;48.770;11.446;2023-02-11T18:03:29;30.20;;;16.90;;
20597;SDS011;10457;48.770;11.446;2023-02-11T18:08:51;32.23;;;16.33;;
20597;SDS011;10457;48.770;11.446;2023-02-11T18:14:15;27.67;;;16.23;;
20597;SDS011;10457;48.770;11.446;2023-02-11T18:19:38;36.37;;;18.70;;
20597;SDS011;10457;48.770;11.446;2023-02-11T18:24:59;51.57;;;25.93;;
20597;SDS011;10457;48.770;11.446;2023-02-11T18:30:21;35.87;;;21.73;;
20597;SDS011;10457;48.770;11.446;2023-02-11T18:35:44;45.47;;;29.50;;
20597;SDS011;10457;48.770;11.446;2023-02-11T18:41:07;48.93;;;27.30;;
20597;SDS011;10457;48.770;11.446;2023-02-11T18:46:29;60.73;;;35.27;;
20597;SDS011;10457;48.770;11.446;2023-02-11T18:51:52;43.93;;;27.47;;
20597;SDS011;10457;48.770;11.446;2023-02-11T18:57:13;54.60;;;25.60;;
20597;SDS011;10457;48.770;11.446;2023-02-11T19:02:34;44.37;;;25.97;;
20597;SDS011;10457;48.770;11.446;2023-02-11T19:07:57;39.57;;;27.03;;
20597;SDS011;10457;48.770;11.446;2023-02-11T19:13:20;51.47;;;31.67;;
20597;SDS011;10457;48.770;11.446;2023-02-11T19:18:41;75.27;;;44.63;;
20597;SDS011;10457;48.770;11.446;2023-02-11T19:24:05;47.53;;;28.77;;
20597;SDS011;10457;48.770;11.446;2023-02-11T19:29:28;43.03;;;27.50;;
20597;SDS011;10457;48.770;11.446;2023-02-11T19:34:53;44.20;;;26.57;;
20597;SDS011;10457;48.770;11.446;2023-02-11T19:40:16;73.93;;;54.83;;
20597;SDS011;10457;48.770;11.446;2023-02-11T19:45:39;52.27;;;36.87;;
20597;SDS011;10457;48.770;11.446;2023-02-11T19:51:05;42.17;;;25.20;;
20597;SDS011;10457;48.770;11.446;2023-02-11T19:56:29;36.93;;;22.07;;
20597;SDS011;10457;48.770;11.446;2023-02-11T20:01:51;39.37;;;22.03;;
20597;SDS011;10457;48.770;11.446;2023-02-11T20:07:12;47.40;;;28.97;;
20597;SDS011;10457;48.770;11.446;2023-02-11T20:12:36;46.63;;;29.23;;
20597;SDS011;10457;48.770;11.446;2023-02-11T20:17:58;48.83;;;37.67;;
20597;SDS011;10457;48.770;11.446;2023-02-11T20:23:19;38.20;;;30.17;;
20597;SDS011;10457;48.770;11.446;2023-02-11T20:28:42;41.20;;;26.27;;
20597;SDS011;10457;48.770;11.446;2023-02-11T20:34:04;38.87;;;22.37;;
20597;SDS011;10457;48.770;11.446;2023-02-11T20:39:25;34.40;;;22.37;;
20597;SDS011;10457;48.770;11.446;2023-02-11T20:44:48;36.30;;;20.20;;
20597;SDS011;10457;48.770;11.446;2023-02-11T20:50:10;34.53;;;19.13;;
20597;SDS011;10457;48.770;11.446;2023-02-11T20:55:34;30.30;;;18.20;;
20597;SDS011;10457;48.770;11.446;2023-02-11T21:01:06;34.73;;;21.23;;
20597;SDS011;10457;48.770;11.446;2023-02-11T21:06:30;33.47;;;20.53;;
20597;SDS011;10457;48.770;11.446;2023-02-11T21:11:53;32.03;;;19.70;;
20597;SDS011;10457;48.770;11.446;2023-02-11T21:17:16;33.53;;;20.50;;
20597;SDS011;10457;48.770;11.446;2023-02-11T21:22:38;34.20;;;20.10;;
20597;SDS011;10457;48.770;11.446;2023-02-11T21:27:59;36.60;;;20.77;;
20597;SDS011;10457;48.770;11.446;2023-02-11T21:33:22;36.13;;;21.87;;
20597;SDS011;10457;48.770;11.446;2023-02-11T21:38:46;45.90;;;25.53;;
20597;SDS011;10457;48.770;11.446;2023-02-11T21:44:08;45.17;;;30.67;;
20597;SDS011;10457;48.770;11.446;2023-02-11T21:49:31;48.90;;;28.67;;
20597;SDS011;10457;48.770;11.446;2023-02-11T21:54:52;48.30;;;29.50;;
20597;SDS011;10457;48.770;11.446;2023-02-11T22:00:14;44.57;;;29.47;;
20597;SDS011;10457;48.770;11.446;2023-02-11T22:05:39;38.90;;;22.70;;
20597;SDS011;10457;48.770;11.446;2023-02-11T22:11:02;44.80;;;28.87;;
20597;SDS011;10457;48.770;11.446;2023-02-11T22:16:25;34.90;;;20.00;;
20597;SDS011;10457;48.770;11.446;2023-02-11T22:21:48;34.17;;;20.10;;
20597;SDS011;10457;48.770;11.446;2023-02-11T22:27:09;39.97;;;24.23;;
20597;SDS011;10457;48.770;11.446;2023-02-11T22:32:31;45.60;;;29.50;;
20597;SDS011;10457;48.770;11.446;2023-02-11T22:37:54;34.87;;;23.10;;
20597;SDS011;10457;48.770;11.446;2023-02-11T22:43:15;40.87;;;24.90;;
20597;SDS011;10457;48.770;11.446;2023-02-11T22:48:37;37.37;;;21.27;;
20597;SDS011;10457;48.770;11.446;2023-02-11T22:54:00;38.47;;;21.00;;
20597;SDS011;10457;48.770;11.446;2023-02-11T22:59:23;38.67;;;22.53;;
20597;SDS011;10457;48.770;11.446;2023-02-11T23:04:45;32.67;;;19.37;;
20597;SDS011;10457;48.770;11.446;2023-02-11T23:10:09;35.83;;;19.30;;
20597;SDS011;10457;48.770;11.446;2023-02-11T23:15:30;32.43;;;19.23;;
20597;SDS011;10457;48.770;11.446;2023-02-11T23:20:52;33.23;;;19.40;;
20597;SDS011;10457;48.770;11.446;2023-02-11T23:26:16;33.80;;;18.70;;
20597;SDS011;10457;48.770;11.446;2023-02-11T23:31:38;35.43;;;18.60;;
20597;SDS011;10457;48.770;11.446;2023-02-11T23:37:04;31.17;;;19.27;;
20597;SDS011;10457;48.770;11.446;2023-02-11T23:42:26;36.00;;;20.20;;
20597;SDS011;10457;48.770;11.446;2023-02-11T23:47:48;32.73;;;20.40;;
20597;SDS011;10457;48.770;11.446;2023-02-11T23:53:10;32.70;;;17.97;;
20597;SDS011;10457;48.770;11.446;2023-02-11T23:58:33;32.83;;;18.40;;
